Terminal Aerodrome Forecast
Issued by NWS State College, PA

Home | Current Version | Previous Version | Text Only | Print | Product List | Glossary On
Versions: 1 2 3 4 5 6 7 8 9 10 11 12 13 14 15 16 17 18 19 20 21 22 23 24 25
000
FTUS41 KCTP 270913 AAB
TAFIPT
TAF AMD
KIPT 270913Z 2709/2806 00000KT P6SM SKC
     FM271000 00000KT 6SM BR SCT004
     FM271500 VRB03KT P6SM FEW050 SCT250
     FM272100 14005KT P6SM SCT250
     FM280300 VRB02KT P6SM BKN250=

USA.gov is the U.S. government's official web portal to all federal, state and local government web resources and services.